Flight Track Log - Related Links

Times and Time Zones

All times are in EDT time to prevent confusion due to time zone crossing. See the UAL5914 flight status page for this flight to view local times or setup timezone preferences in your user account.

Time Position Orientation Groundspeed Altitude Reporting Facility
EDT Latitude Longitude Course Direction KTS MPH feet Rate Location/Type
Wed 03:35:09 PM 36.1500 -86.6667 22° Northeast 175 201 1,300  Level Nashville TRACON
Wed 03:35:57 PM 36.1833 -86.6500 22° Northeast 189 217 2,600 1,556 Climbing Nashville TRACON
Wed 03:36:57 PM 36.2500 -86.6333 11° North 262 302 4,100 1,846 Climbing Nashville TRACON
Wed 03:38:00 PM 36.4175 -86.5367 20° North  Level FlightAware Approximate
Wed 03:38:20 PM 36.3389 -86.5903 21° North 275 316 7,000  Level Memphis Center
Wed 03:39:00 PM 36.4925 -86.5033 20° North  Level FlightAware Approximate
Wed 03:39:20 PM 36.4067 -86.5564 22° Northeast 275 316 9,100  Level Memphis Center
Wed 03:40:00 PM 36.5666 -86.4667 22° Northeast  Level FlightAware Approximate
Wed 03:40:20 PM 36.4767 -86.5244 20° North 269 310 10,800  Level Memphis Center
Wed 03:41:20 PM 36.5589 -86.4844 21° North 288 331 11,800 1,100 Climbing Memphis Center
Wed 03:42:20 PM 36.6531 -86.4361 22° Northeast 311 358 13,000 1,200 Climbing Memphis Center
Wed 03:43:20 PM 36.7433 -86.3928 21° North 336 387 14,200 1,200 Climbing Memphis Center
Wed 03:44:20 PM 36.8356 -86.3442 23° Northeast 348 400 15,400 1,200 Climbing Memphis Center
Wed 03:45:10 PM 36.9103 -86.3075 21° North 363 418 16,400 1,071 Climbing Indianapolis Center
Wed 03:46:12 PM 37.0072 -86.2597 21° North 371 427 17,400 1,008 Climbing Indianapolis Center
Wed 03:47:15 PM 37.1067 -86.2100 22° Northeast 379 436 18,500 1,008 Climbing Indianapolis Center
Wed 03:48:17 PM 37.2069 -86.1581 22° Northeast 385 443 19,500 968 Climbing Indianapolis Center
Wed 03:49:19 PM 37.3072 -86.0994 25° Northeast 394 453 20,500 1,016 Climbing Indianapolis Center
Wed 03:50:21 PM 37.4247 -86.0239 27° Northeast 403 464 21,600 968 Climbing Indianapolis Center
Wed 03:51:23 PM 37.5256 -85.9558 28° Northeast 406 467 22,500 871 Climbing Indianapolis Center
Wed 03:52:25 PM 37.6278 -85.8911 27° Northeast 409 471 23,400 774 Climbing Indianapolis Center
Wed 03:53:27 PM 37.7297 -85.8250 27° Northeast 411 473 24,100 726 Climbing Indianapolis Center
Wed 03:54:29 PM 37.8306 -85.7578 28° Northeast 409 471 24,900 774 Climbing Indianapolis Center
Wed 03:55:31 PM 37.9331 -85.6908 27° Northeast 412 474 25,700 871 Climbing Indianapolis Center
Wed 03:56:33 PM 38.0344 -85.6225 28° Northeast 412 474 26,700 1,065 Climbing Indianapolis Center
Wed 03:57:35 PM 38.1631 -85.5797 15° North 402 463 27,900 1,016 Climbing Indianapolis Center
Wed 03:58:37 PM 38.2728 -85.5839 358° North 394 453 28,800 919 Climbing Indianapolis Center
Wed 03:59:39 PM 38.3808 -85.5892 358° North 391 450 29,800 871 Climbing Indianapolis Center
Wed 04:00:41 PM 38.4911 -85.5933 358° North 394 453 30,600 823 Climbing Indianapolis Center
Wed 04:01:43 PM 38.6008 -85.5983 358° North 395 455 31,500 677 Climbing Indianapolis Center
Wed 04:02:45 PM 38.7286 -85.6039 358° North 400 460 32,000 240 Climbing Indianapolis Center
Wed 04:03:48 PM 38.8464 -85.6078 359° North 419 482 32,000  Level Indianapolis Center
Wed 04:04:50 PM 38.9678 -85.6136 358° North 437 503 32,000  Level Indianapolis Center
Wed 04:05:52 PM 39.0894 -85.6194 358° North 439 505 32,000  Level Indianapolis Center
Wed 04:06:54 PM 39.2125 -85.6236 358° North 444 511 32,000 -629 Level Indianapolis Center
Wed 04:07:56 PM 39.3592 -85.6306 358° North 443 510 30,700 -968 Descending Indianapolis Center
Wed 04:08:58 PM 39.4794 -85.6353 358° North 436 502 30,000 -581 Descending Indianapolis Center
Wed 04:10:00 PM 39.6019 -85.6408 358° North 442 509 29,500 -484 Descending Indianapolis Center
Wed 04:11:02 PM 39.7239 -85.6467 358° North 443 510 29,000 -290 Descending Indianapolis Center
Wed 04:12:04 PM 39.8719 -85.6522 358° North 447 514 28,900 -774 Descending Indianapolis Center
Wed 04:13:06 PM 39.9989 -85.6569 358° North 457 526 27,400 -1,403 Descending Indianapolis Center
Wed 04:14:08 PM 40.1244 -85.6636 358° North 458 527 26,000 -1,403 Descending Indianapolis Center
Wed 04:15:10 PM 40.2500 -85.6686 358° North 455 524 24,500 -968 Descending Indianapolis Center
Wed 04:16:12 PM 40.3722 -85.6744 358° North 445 512 24,000 -242 Descending Indianapolis Center
Wed 04:17:14 PM 40.4978 -85.7569 333° Northwest 439 505 24,000 -48 Level Indianapolis Center
Wed 04:18:16 PM 40.5725 -85.8792 309° West 434 499 23,900 -726 Descending Indianapolis Center
Wed 04:19:18 PM 40.6458 -85.9986 309° West 426 490 22,500 -1,479 Descending Indianapolis Center
Wed 04:20:38 PM 40.7411 -86.1547 309° West 417 480 20,400 -1,521 Descending Chicago Center
Wed 04:21:40 PM 40.8111 -86.2700 309° West 405 466 18,900 -1,452 Descending Chicago Center
Wed 04:22:42 PM 40.8744 -86.3736 309° West 368 423 17,400 -919 Descending Chicago Center
Wed 04:23:44 PM 40.9375 -86.4797 308° West 366 421 17,000 -194 Descending Chicago Center
Wed 04:24:46 PM 41.0142 -86.6056 309° West 367 422 17,000 -194 Level Chicago Center
Wed 04:25:48 PM 41.0767 -86.7100 308° West 364 419 16,600 -871 Descending Chicago Center
Wed 04:26:50 PM 41.1411 -86.8133 310° West 364 419 15,200 -1,403 Descending Chicago Center
Wed 04:27:52 PM 41.1997 -86.9144 308° West 352 405 13,700 -1,452 Descending Chicago Center
Wed 04:28:54 PM 41.2575 -87.0147 307° West 344 396 12,200 -1,056 Descending Chicago Center
Wed 04:29:57 PM 41.3281 -87.1331 308° West 343 395 11,500 -576 Descending Chicago Center
Wed 04:30:59 PM 41.3906 -87.2258 312° West 341 392 11,000 -290 Descending Chicago Center
Wed 04:32:01 PM 41.4586 -87.3075 318° Northwest 335 386 10,900 -581 Descending Chicago Center
Wed 04:33:03 PM 41.5208 -87.3775 320° Northwest 310 357 9,800 -1,355 Descending Chicago Center
Wed 04:34:05 PM 41.5875 -87.4525 320° Northwest 272 313 8,100 -871 Descending Chicago Center
Wed 04:35:07 PM 41.6456 -87.5161 321° Northwest 271 312 8,000 -48 Descending Chicago Center
Wed 04:36:09 PM 41.7025 -87.5819 319° Northwest 273 314 8,000  Level Chicago Center
Wed 04:37:11 PM 41.7592 -87.6453 320° Northwest 269 310 8,000  Level Chicago Center
Wed 04:38:13 PM 41.8142 -87.7053 321° Northwest 260 299 8,000 -484 Level Chicago Center
Wed 04:39:15 PM 41.8192 -87.7931 274° West 217 250 7,000 -581 Descending Chicago Center
Wed 04:40:17 PM 41.8156 -87.8658 266° West 202 232 6,800 -726 Descending Chicago Center
Wed 04:41:19 PM 41.7967 -87.9350 250° West 201 231 5,500 -1,161 Descending Chicago Center
Wed 04:42:21 PM 41.7717 -87.9967 241° Southwest 202 232 4,400 -774 Descending Chicago Center
Wed 04:43:23 PM 41.8142 -88.0333 327° Northwest 194 223 3,900 -677 Descending Chicago Center
Wed 04:44:25 PM 41.8625 -88.0056 23° Northeast 177 204 3,000 -871 Descending Chicago Center

Login

Don't have an account? Register now (free) for customized features, flight alerts, and more!